Time;durP1;ratioP1;P1;durP2;ratioP2;P2;SDS_P1;SDS_P2;PMS_P1;PMS_P2;Temp;Humidity;BMP_temperature;BMP_pressure;BME280_temperature;BME280_humidity;BME280_pressure;Samples;Min_cycle;Max_cycle;Signal;HPM_P1;HPM_P2
2023/12/07 00:02:22;;;;;;;34.87;18.10;;;;;;;-1.06;86.34;100766.44;5109975;28;20208;-69
2023/12/07 00:04:51;;;;;;;31.80;17.47;;;;;;;-1.04;86.02;100773.28;5110349;28;20199;-68
2023/12/07 00:07:19;;;;;;;34.53;17.60;;;;;;;-1.08;86.67;100768.88;5118552;27;20200;-67
2023/12/07 00:09:47;;;;;;;36.97;17.67;;;;;;;-1.12;87.21;100767.00;5128370;27;20764;-68
2023/12/07 00:12:15;;;;;;;35.97;16.77;;;;;;;-1.14;88.02;100771.16;5119508;27;20195;-70
2023/12/07 00:14:43;;;;;;;36.60;18.43;;;;;;;-1.13;87.92;100770.34;5119210;27;20302;-68
2023/12/07 00:17:11;;;;;;;41.87;19.37;;;;;;;-1.11;88.00;100765.34;5119388;27;20243;-65
2023/12/07 00:19:39;;;;;;;38.00;17.57;;;;;;;-1.10;88.10;100770.50;5116164;27;20229;-69
2023/12/07 00:22:08;;;;;;;39.23;19.23;;;;;;;-1.07;88.50;100770.66;5110281;27;20574;-67
2023/12/07 00:24:36;;;;;;;36.47;18.70;;;;;;;-1.01;89.00;100770.03;5111078;27;20302;-71
2023/12/07 00:27:05;;;;;;;36.00;17.77;;;;;;;-0.96;88.43;100773.66;5118517;27;20634;-68
2023/12/07 00:29:33;;;;;;;39.27;19.23;;;;;;;-0.94;87.84;100771.19;5117622;27;20283;-66
2023/12/07 00:32:01;;;;;;;35.23;17.27;;;;;;;-0.91;88.17;100769.69;5117520;27;20786;-69
2023/12/07 00:34:29;;;;;;;33.80;17.97;;;;;;;-0.89;88.31;100770.59;5124131;27;20245;-67
2023/12/07 00:36:57;;;;;;;39.93;18.70;;;;;;;-0.86;88.10;100762.31;5124822;27;20329;-68
2023/12/07 00:39:26;;;;;;;41.07;17.93;;;;;;;-0.82;87.67;100775.16;5114124;27;20199;-67
2023/12/07 00:41:54;;;;;;;40.47;18.33;;;;;;;-0.82;87.67;100782.75;5120217;27;20200;-68
2023/12/07 00:44:22;;;;;;;37.33;18.97;;;;;;;-0.81;87.64;100773.47;5115270;28;20674;-69
2023/12/07 00:46:50;;;;;;;38.00;19.03;;;;;;;-0.79;87.50;100774.44;5117464;27;20293;-67
2023/12/07 00:49:18;;;;;;;39.93;18.60;;;;;;;-0.78;87.97;100763.50;5112030;27;20573;-68
2023/12/07 00:51:46;;;;;;;38.83;18.33;;;;;;;-0.78;86.98;100766.03;5114220;28;20256;-68
2023/12/07 00:54:14;;;;;;;36.60;18.67;;;;;;;-0.80;87.61;100767.66;5123090;27;20208;-68
2023/12/07 00:56:44;;;;;;;38.87;19.13;;;;;;;-0.79;87.61;100774.44;5111816;27;20216;-67
2023/12/07 00:59:12;;;;;;;35.20;18.90;;;;;;;-0.80;87.86;100775.25;5117707;27;20210;-67
2023/12/07 01:01:40;;;;;;;42.53;18.93;;;;;;;-0.83;87.94;100778.47;5110969;27;20653;-70
2023/12/07 01:04:08;;;;;;;38.03;19.00;;;;;;;-0.81;87.88;100783.59;5113661;27;20257;-67
2023/12/07 01:06:36;;;;;;;39.47;18.13;;;;;;;-0.83;88.00;100782.69;5115332;27;20295;-66
2023/12/07 01:09:04;;;;;;;39.83;18.57;;;;;;;-0.80;88.07;100777.78;5111552;27;20253;-69
2023/12/07 01:11:32;;;;;;;40.40;19.00;;;;;;;-0.78;88.04;100781.22;5118298;27;20577;-68
2023/12/07 01:14:01;;;;;;;40.57;18.77;;;;;;;-0.75;87.79;100781.38;5120993;27;20634;-67
2023/12/07 01:16:29;;;;;;;36.93;19.17;;;;;;;-0.80;87.75;100782.81;5118606;27;20695;-69
2023/12/07 01:18:57;;;;;;;36.63;18.07;;;;;;;-0.80;88.58;100783.69;5119885;27;20199;-67
2023/12/07 01:21:26;;;;;;;37.77;17.97;;;;;;;-0.82;87.81;100781.88;5127580;27;20670;-70
2023/12/07 01:23:54;;;;;;;38.50;18.63;;;;;;;-0.88;88.88;100774.88;5108763;27;20203;-70
2023/12/07 01:26:37;;;;;;;40.93;19.23;;;;;;;-0.85;89.15;100780.06;5111156;27;20287;-71
2023/12/07 01:29:06;;;;;;;36.47;17.97;;;;;;;-0.84;88.95;100786.00;5104607;28;20208;-70
2023/12/07 01:31:34;;;;;;;42.03;18.27;;;;;;;-0.82;89.27;100777.69;5118619;27;20200;-68
2023/12/07 01:34:02;;;;;;;43.23;20.20;;;;;;;-0.82;89.58;100779.34;5118013;27;20264;-67
2023/12/07 01:36:30;;;;;;;43.93;20.13;;;;;;;-0.80;89.68;100777.78;5118003;27;20212;-68
2023/12/07 01:39:00;;;;;;;45.67;19.93;;;;;;;-0.82;89.24;100774.28;5116098;27;20207;-70
2023/12/07 01:41:28;;;;;;;44.67;18.90;;;;;;;-0.82;89.60;100776.81;5103159;27;20260;-71
2023/12/07 01:43:55;;;;;;;42.77;19.83;;;;;;;-0.85;89.82;100771.63;5107026;27;20208;-68
2023/12/07 01:46:25;;;;;;;48.03;19.67;;;;;;;-0.88;90.04;100766.44;5113718;27;20668;-69
2023/12/07 01:48:53;;;;;;;44.00;19.20;;;;;;;-0.87;90.46;100770.69;5108755;27;20235;-69
2023/12/07 01:51:21;;;;;;;45.27;20.83;;;;;;;-0.87;90.78;100768.16;5112984;27;20243;-69
2023/12/07 01:53:50;;;;;;;47.33;18.97;;;;;;;-0.84;90.99;100766.63;5118109;27;20210;-68
2023/12/07 01:56:18;;;;;;;45.73;19.80;;;;;;;-0.85;90.90;100769.94;5116918;27;20215;-67
2023/12/07 01:58:46;;;;;;;46.43;19.73;;;;;;;-0.85;91.17;100762.34;5113283;27;20204;-69
2023/12/07 02:01:14;;;;;;;39.60;18.63;;;;;;;-0.82;91.45;100764.16;5117725;27;20226;-68
2023/12/07 02:03:43;;;;;;;48.40;19.30;;;;;;;-0.79;91.26;100760.13;5114588;27;20199;-69
2023/12/07 02:06:13;;;;;;;40.70;16.77;;;;;;;-0.76;91.12;100757.72;5104770;27;20632;-69
2023/12/07 02:08:42;;;;;;;44.13;18.27;;;;;;;-0.77;90.86;100762.72;5101915;27;20205;-67
2023/12/07 02:11:10;;;;;;;49.73;19.40;;;;;;;-0.77;91.23;100758.53;5111250;27;20196;-69
2023/12/07 02:13:40;;;;;;;47.47;18.80;;;;;;;-0.75;91.71;100761.13;5113516;27;20231;-71
2023/12/07 02:16:15;;;;;;;41.17;17.60;;;;;;;-0.78;90.97;100758.44;5114565;27;20679;-68
2023/12/07 02:18:52;;;;;;;40.60;17.37;;;;;;;-0.82;91.08;100759.97;5116282;27;20239;-69
2023/12/07 02:21:31;;;;;;;34.93;17.03;;;;;;;-0.82;90.95;100762.50;5115006;27;20196;-67
2023/12/07 02:23:59;;;;;;;42.63;18.77;;;;;;;-0.80;91.58;100763.44;5114496;27;20200;-68
2023/12/07 02:26:33;;;;;;;45.37;19.13;;;;;;;-0.79;91.55;100767.72;5105579;27;20990;-67
2023/12/07 02:29:01;;;;;;;43.27;17.23;;;;;;;-0.74;91.60;100767.91;5119638;27;20329;-69
2023/12/07 02:31:29;;;;;;;43.67;19.10;;;;;;;-0.71;91.53;100775.66;5112543;27;20200;-67
2023/12/07 02:33:57;;;;;;;46.47;17.83;;;;;;;-0.69;91.13;100776.59;5114819;27;20499;-69
2023/12/07 02:36:27;;;;;;;38.87;17.93;;;;;;;-0.68;91.10;100780.84;5116905;27;20199;-68
2023/12/07 02:38:57;;;;;;;44.67;18.37;;;;;;;-0.66;90.78;100778.38;5111740;28;20196;-69
2023/12/07 02:41:27;;;;;;;40.67;18.00;;;;;;;-0.65;91.03;100778.47;5109575;27;20249;-70
2023/12/07 02:43:57;;;;;;;43.30;17.17;;;;;;;-0.63;90.97;100776.84;5107518;27;20254;-67
2023/12/07 02:46:26;;;;;;;43.60;17.03;;;;;;;-0.66;90.71;100779.28;5110582;27;20200;-69
2023/12/07 02:48:54;;;;;;;45.17;18.00;;;;;;;-0.65;90.49;100781.00;5119071;27;20212;-69
2023/12/07 02:51:22;;;;;;;37.30;16.03;;;;;;;-0.70;90.50;100779.03;5116853;27;20203;-69
2023/12/07 02:53:50;;;;;;;35.03;16.83;;;;;;;-0.73;90.99;100775.59;5112089;27;20200;-69
2023/12/07 02:56:18;;;;;;;37.00;16.90;;;;;;;-0.70;91.00;100779.94;5111766;28;20200;-68
2023/12/07 02:58:46;;;;;;;39.10;17.37;;;;;;;-0.67;91.06;100781.72;5117145;27;20247;-70
2023/12/07 03:01:15;;;;;;;43.57;16.60;;;;;;;-0.65;90.98;100782.66;5113356;27;20255;-69
2023/12/07 03:03:43;;;;;;;38.83;17.80;;;;;;;-0.61;91.05;100777.81;5110415;27;20211;-70
2023/12/07 03:06:11;;;;;;;36.67;16.53;;;;;;;-0.58;90.71;100785.53;5102851;27;20294;-69
2023/12/07 03:08:39;;;;;;;40.97;16.87;;;;;;;-0.55;90.95;100774.69;5112557;27;20547;-69
2023/12/07 03:11:08;;;;;;;36.53;16.27;;;;;;;-0.54;90.16;100782.34;5113095;27;20207;-68
2023/12/07 03:13:36;;;;;;;39.67;16.30;;;;;;;-0.55;90.44;100775.56;5112044;28;20562;-68
2023/12/07 03:16:08;;;;;;;41.53;18.13;;;;;;;-0.54;90.48;100772.22;5129399;27;20298;-62
2023/12/07 03:18:38;;;;;;;35.73;16.23;;;;;;;-0.57;89.98;100772.06;5116483;27;20274;-62
2023/12/07 03:21:06;;;;;;;37.83;16.97;;;;;;;-0.58;90.66;100772.88;5113254;27;20208;-62
2023/12/07 03:23:34;;;;;;;37.03;16.37;;;;;;;-0.55;90.67;100778.09;5104533;27;20280;-61
2023/12/07 03:26:02;;;;;;;32.67;15.27;;;;;;;-0.53;90.29;100763.81;5113260;27;20230;-63
2023/12/07 03:28:30;;;;;;;36.30;17.00;;;;;;;-0.49;89.96;100780.00;5117000;27;20669;-63
2023/12/07 03:30:58;;;;;;;34.67;14.37;;;;;;;-0.50;90.13;100771.56;5107433;27;20215;-61
2023/12/07 03:33:26;;;;;;;34.27;16.30;;;;;;;-0.47;90.05;100782.63;5111336;28;20199;-63
2023/12/07 03:35:55;;;;;;;40.57;17.17;;;;;;;-0.47;89.97;100787.69;5109462;27;20204;-60
2023/12/07 03:38:23;;;;;;;31.40;15.33;;;;;;;-0.46;90.16;100789.41;5117844;27;20220;-61
2023/12/07 03:40:51;;;;;;;33.47;14.10;;;;;;;-0.50;89.77;100783.34;5101437;27;20232;-64
2023/12/07 03:43:20;;;;;;;32.97;15.10;;;;;;;-0.54;89.73;100782.34;5106858;28;20654;-61
2023/12/07 03:45:48;;;;;;;35.33;15.83;;;;;;;-0.55;89.97;100789.88;5112582;27;20203;-64
2023/12/07 03:48:16;;;;;;;33.27;15.13;;;;;;;-0.60;90.29;100779.53;5120861;27;21022;-62
2023/12/07 03:50:44;;;;;;;35.50;15.03;;;;;;;-0.58;90.56;100785.53;5108143;27;20203;-63
2023/12/07 03:53:13;;;;;;;34.40;15.67;;;;;;;-0.57;90.16;100784.72;5114582;27;20711;-61
2023/12/07 03:55:42;;;;;;;34.87;15.63;;;;;;;-0.55;90.95;100784.81;5116207;27;20214;-62
2023/12/07 03:58:10;;;;;;;32.07;13.63;;;;;;;-0.54;90.75;100792.47;5103441;28;20675;-63
2023/12/07 04:00:37;;;;;;;38.23;16.73;;;;;;;-0.50;90.58;100789.28;5113626;28;20233;-64
2023/12/07 04:03:06;;;;;;;34.97;16.83;;;;;;;-0.46;90.39;100792.81;5111812;28;20200;-64
2023/12/07 04:05:34;;;;;;;31.33;13.77;;;;;;;-0.43;90.43;100790.41;5115428;28;20210;-63
2023/12/07 04:08:05;;;;;;;35.37;15.10;;;;;;;-0.41;90.15;100787.94;5107988;28;20197;-63
2023/12/07 04:10:34;;;;;;;33.90;14.80;;;;;;;-0.38;90.23;100785.56;5112717;28;20207;-66
2023/12/07 04:13:02;;;;;;;34.77;15.80;;;;;;;-0.34;90.42;100784.88;5114474;28;20195;-62
2023/12/07 04:15:31;;;;;;;31.03;14.23;;;;;;;-0.29;89.91;100788.50;5121347;28;20547;-64
2023/12/07 04:17:58;;;;;;;33.00;15.83;;;;;;;-0.27;90.36;100786.88;5101212;28;20351;-63
2023/12/07 04:20:26;;;;;;;35.77;15.50;;;;;;;-0.27;90.04;100781.81;5102570;28;20246;-65
2023/12/07 04:22:54;;;;;;;33.20;14.90;;;;;;;-0.27;89.95;100781.81;5115592;28;20207;-62
2023/12/07 04:25:22;;;;;;;34.37;15.33;;;;;;;-0.26;89.97;100786.06;5115065;28;20199;-63
2023/12/07 04:27:52;;;;;;;35.17;15.53;;;;;;;-0.29;89.58;100785.97;5105133;28;20200;-64
2023/12/07 04:30:20;;;;;;;29.47;14.73;;;;;;;-0.34;89.36;100789.94;5120854;28;20286;-66
2023/12/07 04:32:48;;;;;;;32.50;15.67;;;;;;;-0.36;89.80;100784.81;5110031;28;20199;-63
2023/12/07 04:35:16;;;;;;;30.83;15.90;;;;;;;-0.36;90.07;100778.91;5115581;28;20206;-63
2023/12/07 04:37:44;;;;;;;36.83;15.73;;;;;;;-0.33;90.20;100781.53;5108785;28;20238;-65
2023/12/07 04:40:12;;;;;;;33.40;15.20;;;;;;;-0.33;90.73;100784.06;5107272;28;20201;-62
2023/12/07 04:42:40;;;;;;;36.17;16.40;;;;;;;-0.34;90.21;100783.22;5110584;28;20224;-69
2023/12/07 04:45:10;;;;;;;36.70;16.30;;;;;;;-0.35;90.15;100785.69;5105858;28;20204;-68
2023/12/07 04:47:38;;;;;;;36.03;16.73;;;;;;;-0.37;90.20;100785.63;5109124;28;20196;-70
2023/12/07 04:50:07;;;;;;;38.77;16.97;;;;;;;-0.37;90.43;100782.22;5106140;28;20218;-67
2023/12/07 04:52:35;;;;;;;37.20;15.30;;;;;;;-0.38;90.60;100772.88;5101515;28;20196;-69
2023/12/07 04:55:04;;;;;;;31.67;15.30;;;;;;;-0.39;90.38;100781.28;5115774;27;20741;-69
2023/12/07 04:57:32;;;;;;;33.30;14.93;;;;;;;-0.39;90.80;100778.75;5107226;27;20201;-64
2023/12/07 05:00:00;;;;;;;33.33;16.00;;;;;;;-0.37;90.34;100785.63;5113171;27;20210;-63
2023/12/07 05:02:30;;;;;;;31.27;14.60;;;;;;;-0.37;90.41;100785.63;5116097;27;20200;-63
2023/12/07 05:04:58;;;;;;;33.27;14.97;;;;;;;-0.35;90.79;100794.16;5119899;27;20226;-62
2023/12/07 05:07:26;;;;;;;34.23;15.40;;;;;;;-0.34;90.05;100785.75;5126641;27;20658;-66
2023/12/07 05:09:54;;;;;;;34.00;15.97;;;;;;;-0.32;90.32;100790.91;5106319;27;20729;-62
2023/12/07 05:12:22;;;;;;;39.63;16.07;;;;;;;-0.33;90.13;100786.59;5111994;28;20203;-64
2023/12/07 05:14:51;;;;;;;33.27;13.83;;;;;;;-0.37;89.84;100798.28;5116287;27;20207;-64
2023/12/07 05:17:19;;;;;;;31.87;14.83;;;;;;;-0.39;90.22;100797.34;5121755;27;20235;-63
2023/12/07 05:19:49;;;;;;;36.37;16.57;;;;;;;-0.36;90.55;100797.50;5109491;27;20226;-64
2023/12/07 05:22:17;;;;;;;31.23;14.30;;;;;;;-0.32;91.07;100798.50;5112983;27;20571;-63
2023/12/07 05:24:45;;;;;;;34.13;16.00;;;;;;;-0.32;90.47;100791.75;5122536;27;20614;-62
2023/12/07 05:27:13;;;;;;;31.07;15.03;;;;;;;-0.28;90.48;100797.81;5119486;27;20268;-72
2023/12/07 05:29:41;;;;;;;35.20;15.90;;;;;;;-0.25;90.66;100795.44;5105512;27;20197;-68
2023/12/07 05:32:09;;;;;;;32.00;15.40;;;;;;;-0.32;89.69;100790.91;5117881;27;20200;-67
2023/12/07 05:34:37;;;;;;;30.93;15.23;;;;;;;-0.26;90.40;100811.41;5116615;27;20200;-68
2023/12/07 05:37:07;;;;;;;28.63;13.63;;;;;;;-0.33;89.78;100800.16;5115373;27;20211;-66
2023/12/07 05:39:35;;;;;;;30.47;14.20;;;;;;;-0.34;90.40;100805.13;5103096;27;20319;-68
2023/12/07 05:42:04;;;;;;;29.87;14.57;;;;;;;-0.38;89.89;100815.94;5116506;27;20653;-69
2023/12/07 05:44:32;;;;;;;32.07;15.50;;;;;;;-0.38;90.59;100810.88;5115320;27;20196;-69
2023/12/07 05:47:00;;;;;;;29.37;14.07;;;;;;;-0.39;90.41;100811.66;5109383;27;20200;-68
2023/12/07 05:49:28;;;;;;;30.40;15.20;;;;;;;-0.39;90.69;100811.66;5119642;27;20201;-67
2023/12/07 05:51:56;;;;;;;26.93;14.93;;;;;;;-0.37;90.72;100813.50;5113149;27;20204;-69
2023/12/07 05:54:25;;;;;;;32.40;14.07;;;;;;;-0.36;90.93;100809.28;5114411;27;20595;-68
2023/12/07 05:56:53;;;;;;;34.53;15.80;;;;;;;-0.34;90.65;100816.13;5112430;27;20294;-68
2023/12/07 05:59:22;;;;;;;27.50;14.57;;;;;;;-0.36;90.73;100806.75;5118987;27;20625;-69
2023/12/07 06:01:52;;;;;;;31.17;15.47;;;;;;;-0.34;91.23;100815.25;5112842;27;20362;-68
2023/12/07 06:04:20;;;;;;;29.93;14.00;;;;;;;-0.30;91.14;100822.19;5103375;27;20506;-69
2023/12/07 06:06:48;;;;;;;30.20;14.17;;;;;;;-0.33;90.25;100828.00;5113698;27;20257;-69
2023/12/07 06:09:17;;;;;;;25.70;12.43;;;;;;;-0.36;90.30;100832.06;5117114;27;20299;-68
2023/12/07 06:11:46;;;;;;;26.90;14.33;;;;;;;-0.39;90.72;100824.34;5112832;27;20202;-68
2023/12/07 06:14:14;;;;;;;30.67;14.43;;;;;;;-0.39;91.59;100826.88;5105566;28;20558;-69
2023/12/07 06:16:42;;;;;;;28.57;13.37;;;;;;;-0.39;91.17;100830.25;5107177;27;20281;-69
2023/12/07 06:19:10;;;;;;;27.40;14.50;;;;;;;-0.43;91.40;100838.50;5102463;28;20223;-69
2023/12/07 06:21:37;;;;;;;28.87;13.83;;;;;;;-0.43;91.31;100843.56;5101767;28;20200;-68
2023/12/07 06:24:06;;;;;;;26.07;13.50;;;;;;;-0.40;91.98;100840.31;5113985;27;20203;-68
2023/12/07 06:26:35;;;;;;;29.00;15.70;;;;;;;-0.41;91.31;100843.63;5117412;27;20643;-70
2023/12/07 06:29:07;;;;;;;29.03;14.13;;;;;;;-0.47;91.13;100851.84;5111061;27;20306;-68
2023/12/07 06:31:35;;;;;;;25.83;14.40;;;;;;;-0.49;91.69;100845.81;5122626;27;20195;-68
2023/12/07 06:34:03;;;;;;;28.83;14.03;;;;;;;-0.49;91.96;100845.81;5116025;27;20260;-68
2023/12/07 06:36:31;;;;;;;29.33;14.23;;;;;;;-0.44;92.17;100843.50;5111017;27;20218;-67
2023/12/07 06:38:59;;;;;;;28.87;14.10;;;;;;;-0.43;92.32;100846.09;5103820;27;20273;-68
2023/12/07 06:41:27;;;;;;;26.40;14.43;;;;;;;-0.47;91.91;100844.25;5127197;27;20199;-68
2023/12/07 06:43:55;;;;;;;31.13;14.10;;;;;;;-0.42;91.77;100852.91;5125124;27;20226;-66
2023/12/07 06:46:26;;;;;;;28.93;14.37;;;;;;;-0.38;92.35;100853.91;5113600;28;20211;-63
2023/12/07 06:48:54;;;;;;;31.30;14.93;;;;;;;-0.33;91.98;100862.56;5108286;27;20208;-63
2023/12/07 06:51:22;;;;;;;31.43;14.77;;;;;;;-0.29;91.79;100857.72;5117389;27;20648;-62
2023/12/07 06:53:51;;;;;;;24.97;14.13;;;;;;;-0.23;91.42;100859.66;5101599;27;20216;-63
2023/12/07 06:56:19;;;;;;;26.47;15.57;;;;;;;-0.21;91.25;100862.28;5109353;27;20317;-65
2023/12/07 06:58:46;;;;;;;27.17;14.30;;;;;;;-0.17;91.51;100865.00;5111000;27;20238;-64
2023/12/07 07:01:15;;;;;;;27.43;14.70;;;;;;;-0.14;91.43;100872.75;5110413;27;20200;-62
2023/12/07 07:03:44;;;;;;;29.33;14.00;;;;;;;-0.15;90.44;100867.59;5112436;27;20346;-63
2023/12/07 07:06:12;;;;;;;29.53;13.83;;;;;;;-0.20;90.99;100864.00;5104973;28;20196;-63
2023/12/07 07:08:40;;;;;;;27.23;12.93;;;;;;;-0.14;90.51;100864.28;5116159;27;20212;-62
2023/12/07 07:11:14;;;;;;;29.73;15.17;;;;;;;-0.14;91.12;100870.22;5105604;27;20603;-63
2023/12/07 07:13:41;;;;;;;26.57;13.73;;;;;;;-0.10;90.70;100868.69;5112138;27;20203;-65
2023/12/07 07:16:10;;;;;;;25.83;13.70;;;;;;;-0.07;90.42;100866.28;5109429;27;20590;-65
2023/12/07 07:18:39;;;;;;;29.10;14.73;;;;;;;-0.06;90.47;100871.41;5116032;27;20338;-63
2023/12/07 07:21:08;;;;;;;24.00;13.33;;;;;;;-0.02;90.41;100867.34;5111720;27;20597;-65
2023/12/07 07:23:38;;;;;;;25.90;14.43;;;;;;;0.00;90.79;100873.38;5108554;27;20196;-62
2023/12/07 07:26:06;;;;;;;31.47;15.20;;;;;;;0.04;90.75;100869.28;5116063;27;20660;-66
2023/12/07 07:28:34;;;;;;;28.70;14.90;;;;;;;0.05;89.94;100868.50;5110335;27;20286;-64
2023/12/07 07:31:02;;;;;;;27.30;14.23;;;;;;;0.10;90.33;100872.09;5110058;27;20200;-66
2023/12/07 07:33:30;;;;;;;27.43;13.83;;;;;;;0.09;89.65;100875.44;5120795;27;20196;-64
2023/12/07 07:35:58;;;;;;;29.63;14.53;;;;;;;0.04;89.36;100860.03;5113122;27;20723;-64
2023/12/07 07:38:29;;;;;;;27.03;14.63;;;;;;;0.04;89.41;100876.88;5112003;28;20261;-67
2023/12/07 07:40:57;;;;;;;27.50;14.93;;;;;;;0.02;89.66;100875.97;5105114;28;20218;-65
2023/12/07 07:43:25;;;;;;;28.60;15.27;;;;;;;0.01;89.76;100871.69;5120699;27;20199;-64
2023/12/07 07:45:53;;;;;;;27.17;15.27;;;;;;;0.04;89.69;100874.34;5112970;27;20321;-66
2023/12/07 07:48:21;;;;;;;25.17;14.13;;;;;;;0.07;90.32;100866.88;5105535;28;20211;-65
2023/12/07 07:50:49;;;;;;;23.23;13.40;;;;;;;0.03;90.02;100862.47;5100958;27;20731;-66
2023/12/07 07:53:17;;;;;;;26.43;15.00;;;;;;;-0.05;89.77;100860.47;5108842;28;20659;-64
2023/12/07 07:55:47;;;;;;;27.10;14.83;;;;;;;-0.03;91.18;100869.03;5099206;28;20204;-63
2023/12/07 07:58:14;;;;;;;27.77;14.70;;;;;;;-0.03;90.19;100870.69;5107024;28;20564;-66
2023/12/07 08:00:42;;;;;;;28.07;15.27;;;;;;;-0.02;91.19;100870.75;5116507;28;20230;-67
2023/12/07 08:03:10;;;;;;;27.40;15.03;;;;;;;-0.03;91.00;100869.03;5115069;27;20597;-66
2023/12/07 08:05:38;;;;;;;25.30;14.27;;;;;;;-0.03;91.18;100869.03;5109457;28;20295;-67
2023/12/07 08:08:07;;;;;;;24.83;15.13;;;;;;;0.00;90.65;100873.38;5097003;28;20211;-69
2023/12/07 08:10:35;;;;;;;29.57;15.23;;;;;;;0.00;90.11;100873.38;5108012;28;20215;-65
2023/12/07 08:13:23;;;;;;;27.80;14.77;;;;;;;0.04;91.19;100877.78;5115860;28;20202;-64
2023/12/07 08:15:52;;;;;;;27.27;15.23;;;;;;;0.09;90.41;100883.03;5103960;28;20250;-67
2023/12/07 08:18:24;;;;;;;28.33;15.63;;;;;;;0.14;91.03;100874.81;5101946;28;20733;-65
2023/12/07 08:20:53;;;;;;;31.43;15.50;;;;;;;0.19;90.63;100875.03;5102293;28;20328;-64
2023/12/07 08:23:21;;;;;;;30.03;15.57;;;;;;;0.22;90.62;100880.22;5108650;28;20215;-66
2023/12/07 08:25:49;;;;;;;26.20;15.07;;;;;;;0.26;90.58;100882.09;5100434;28;20207;-65
2023/12/07 08:28:17;;;;;;;27.73;16.00;;;;;;;0.28;90.26;100883.03;5113272;28;20231;-70
2023/12/07 08:30:47;;;;;;;30.23;16.93;;;;;;;0.30;89.86;100881.44;5106912;27;20196;-67
2023/12/07 08:33:15;;;;;;;32.50;15.60;;;;;;;0.33;89.94;100889.19;5111193;27;20582;-68
2023/12/07 08:35:43;;;;;;;31.53;16.50;;;;;;;0.36;89.72;100894.34;5099400;27;20208;-68
2023/12/07 08:38:11;;;;;;;29.07;15.97;;;;;;;0.35;89.45;100897.69;5107136;27;20727;-68
2023/12/07 08:40:39;;;;;;;30.33;16.07;;;;;;;0.39;89.56;100903.78;5099779;27;20232;-67
2023/12/07 08:43:07;;;;;;;27.80;16.43;;;;;;;0.43;88.68;100898.03;5103131;27;20199;-67
2023/12/07 08:45:38;;;;;;;30.00;16.50;;;;;;;0.38;87.94;100899.50;5104977;27;20200;-68
2023/12/07 08:48:07;;;;;;;32.03;16.43;;;;;;;0.38;89.17;100895.31;5105167;27;20677;-64
2023/12/07 08:50:35;;;;;;;27.03;15.77;;;;;;;0.38;88.81;100887.69;5102295;28;20573;-66
2023/12/07 08:53:04;;;;;;;26.73;15.53;;;;;;;0.41;88.28;100885.31;5106113;27;20215;-65
2023/12/07 08:55:33;;;;;;;27.97;15.70;;;;;;;0.41;88.64;100892.03;5102705;27;20653;-63
2023/12/07 08:58:03;;;;;;;28.30;16.43;;;;;;;0.38;87.75;100887.69;5105996;27;20204;-65
2023/12/07 09:00:32;;;;;;;27.60;15.57;;;;;;;0.36;88.59;100889.28;5103542;27;20304;-64
2023/12/07 09:03:01;;;;;;;31.17;16.80;;;;;;;0.32;88.18;100892.50;5119899;27;20204;-65
2023/12/07 09:05:30;;;;;;;32.67;18.20;;;;;;;0.27;88.43;100888.91;5106121;27;20219;-67
2023/12/07 09:07:59;;;;;;;27.70;16.40;;;;;;;0.20;88.74;100877.63;5113106;27;20219;-67
2023/12/07 09:10:27;;;;;;;27.67;17.47;;;;;;;0.21;88.50;100891.16;5113042;27;20208;-66
2023/12/07 09:12:56;;;;;;;31.13;16.77;;;;;;;0.15;89.17;100895.97;5106177;27;20222;-66
2023/12/07 09:15:24;;;;;;;33.43;17.97;;;;;;;0.16;89.04;100905.31;5102774;27;20691;-65
2023/12/07 09:17:52;;;;;;;28.03;16.13;;;;;;;0.13;89.40;100897.56;5113285;28;20737;-65
2023/12/07 09:20:20;;;;;;;30.43;17.13;;;;;;;0.12;89.76;100898.38;5116097;28;20729;-67
2023/12/07 09:22:49;;;;;;;28.80;16.43;;;;;;;0.15;89.71;100901.91;5100256;28;20249;-67
2023/12/07 09:25:18;;;;;;;31.03;17.33;;;;;;;0.18;90.32;100902.03;5104155;28;20230;-65
2023/12/07 09:27:47;;;;;;;31.97;18.10;;;;;;;0.24;89.41;100896.38;5114041;28;20210;-65
2023/12/07 09:30:16;;;;;;;30.67;18.33;;;;;;;0.22;89.28;100897.94;5128632;27;20207;-66
2023/12/07 09:32:43;;;;;;;28.87;17.53;;;;;;;0.22;88.44;100900.50;5108358;28;20212;-68
2023/12/07 09:35:14;;;;;;;31.47;16.67;;;;;;;0.26;88.69;100904.03;5118168;28;20208;-65
2023/12/07 09:37:44;;;;;;;35.40;18.97;;;;;;;0.23;88.92;100892.97;5106125;28;20208;-66
2023/12/07 09:40:18;;;;;;;30.13;18.23;;;;;;;0.25;89.49;100890.50;5103953;28;20222;-66
2023/12/07 09:42:46;;;;;;;32.23;17.63;;;;;;;0.13;88.41;100897.56;5108503;28;20598;-68
2023/12/07 09:45:16;;;;;;;38.23;18.23;;;;;;;0.09;89.20;100895.69;5111942;28;20192;-68
2023/12/07 09:47:47;;;;;;;29.90;16.40;;;;;;;0.11;89.00;100887.38;5107551;28;20204;-64
2023/12/07 09:50:18;;;;;;;31.30;17.63;;;;;;;-0.02;89.08;100891.03;5111021;28;20282;-72
2023/12/07 09:52:48;;;;;;;31.73;18.87;;;;;;;-0.08;90.45;100888.19;5103966;28;20207;-68
2023/12/07 09:55:33;;;;;;;30.97;18.17;;;;;;;-0.06;91.70;100888.28;5110473;28;20194;-66
2023/12/07 09:58:04;;;;;;;29.77;16.90;;;;;;;-0.06;91.21;100888.28;5119904;28;20227;-70
2023/12/07 10:00:33;;;;;;;34.43;18.27;;;;;;;-0.02;90.98;100898.63;5113595;28;20631;-73
2023/12/07 10:03:01;;;;;;;35.00;18.63;;;;;;;-0.01;91.06;100892.75;5128702;28;20638;-74
2023/12/07 10:05:29;;;;;;;39.03;19.67;;;;;;;0.06;91.51;100890.50;5113600;28;20287;-74
2023/12/07 10:07:57;;;;;;;42.10;20.07;;;;;;;0.10;91.07;100905.88;5119076;28;20203;-68
2023/12/07 10:10:25;;;;;;;31.20;18.60;;;;;;;0.16;90.81;100902.78;5099279;28;20212;-73
2023/12/07 10:12:57;;;;;;;35.67;19.13;;;;;;;0.16;90.00;100896.03;5117215;28;20214;-73
2023/12/07 10:15:26;;;;;;;31.13;18.93;;;;;;;0.21;90.37;100898.75;5109232;28;20201;-71
2023/12/07 10:17:56;;;;;;;34.90;18.37;;;;;;;0.27;90.21;100893.97;5060258;27;1122093;-71
2023/12/07 10:20:27;;;;;;;33.93;18.90;;;;;;;0.33;89.78;100903.50;5096796;28;20204;-69
2023/12/07 10:23:04;;;;;;;34.03;19.27;;;;;;;0.37;89.52;100896.13;5109609;28;20297;-73
2023/12/07 10:25:34;;;;;;;32.80;19.50;;;;;;;0.45;89.79;100901.50;5109241;27;20292;-73
2023/12/07 10:28:06;;;;;;;30.40;19.67;;;;;;;0.47;89.48;100893.16;5110030;27;20580;-70
2023/12/07 10:30:35;;;;;;;33.30;20.03;;;;;;;0.44;87.51;100892.16;5117564;27;20231;-71
2023/12/07 10:33:06;;;;;;;33.07;19.63;;;;;;;0.40;87.72;100895.34;5122382;27;20710;-70
2023/12/07 10:35:39;;;;;;;35.57;18.70;;;;;;;0.24;88.80;100893.84;5103863;27;20640;-70
2023/12/07 10:38:07;;;;;;;35.13;18.87;;;;;;;0.19;89.24;100896.19;5121047;27;20196;-71
2023/12/07 10:40:35;;;;;;;34.33;18.63;;;;;;;0.17;89.02;100897.75;5117326;27;20213;-70
2023/12/07 10:43:06;;;;;;;31.93;18.43;;;;;;;0.14;88.84;100901.81;5125290;27;20619;-71
2023/12/07 10:45:36;;;;;;;33.53;19.90;;;;;;;0.17;89.60;100904.50;5113397;28;20560;-70
2023/12/07 10:48:07;;;;;;;37.80;19.20;;;;;;;0.18;89.61;100899.47;5102737;27;20283;-70
2023/12/07 10:50:37;;;;;;;34.50;17.93;;;;;;;0.11;88.82;100901.69;5107499;27;20271;-65
2023/12/07 10:53:10;;;;;;;31.63;19.67;;;;;;;0.13;90.07;100893.34;5106995;28;20530;-72
2023/12/07 10:55:45;;;;;;;30.67;17.60;;;;;;;0.14;89.31;100896.75;5112244;27;20192;-71
2023/12/07 10:58:17;;;;;;;31.73;18.30;;;;;;;0.07;89.75;100900.69;5104405;27;20198;-70
2023/12/07 11:00:46;;;;;;;32.30;18.63;;;;;;;0.06;90.05;100898.09;5121133;27;20208;-70
2023/12/07 11:03:17;;;;;;;29.67;18.03;;;;;;;0.07;90.88;100893.06;5108321;27;20209;-72
2023/12/07 11:05:47;;;;;;;35.93;19.97;;;;;;;0.12;91.07;100898.38;5113043;27;20670;-71
2023/12/07 11:08:22;;;;;;;33.17;18.87;;;;;;;0.20;91.61;100886.91;5106113;28;20200;-70
2023/12/07 11:10:59;;;;;;;31.87;18.43;;;;;;;0.27;91.12;100891.44;5112625;28;20648;-72
2023/12/07 11:13:31;;;;;;;33.93;18.50;;;;;;;0.32;89.79;100884.88;5106805;27;20235;-70
2023/12/07 11:15:59;;;;;;;32.77;18.03;;;;;;;0.34;89.79;100888.38;5107418;27;20210;-70
2023/12/07 11:18:27;;;;;;;34.83;19.73;;;;;;;0.34;89.99;100883.31;5112101;27;20572;-69
2023/12/07 11:20:56;;;;;;;33.23;19.13;;;;;;;0.45;90.39;100884.63;5105397;27;20289;-68